createdAt,value
2022-11-24T00:01:30.717Z,62.85
2022-11-24T00:03:18.245Z,65.00
2022-11-24T00:05:06.097Z,66.55
2022-11-24T00:08:42.423Z,67.90
2022-11-24T00:10:29.387Z,62.42
2022-11-24T00:12:16.753Z,67.07
2022-11-24T00:14:05.439Z,65.05
2022-11-24T00:15:52.494Z,76.07
2022-11-24T00:17:39.728Z,72.03
2022-11-24T00:19:27.422Z,76.13
2022-11-24T00:21:16.184Z,82.43
2022-11-24T00:23:03.519Z,88.32
2022-11-24T00:24:50.492Z,86.67
2022-11-24T00:26:37.734Z,82.72
2022-11-24T00:28:25.010Z,85.30
2022-11-24T00:30:12.471Z,77.97
2022-11-24T00:31:59.558Z,85.35
2022-11-24T00:33:48.246Z,75.68
2022-11-24T00:35:35.304Z,62.17
2022-11-24T00:37:22.384Z,69.37
2022-11-24T00:39:14.750Z,67.32
2022-11-24T00:41:01.858Z,64.07
2022-11-24T00:42:48.839Z,64.50
2022-11-24T00:44:36.097Z,57.55
2022-11-24T00:46:24.145Z,58.55
2022-11-24T00:48:11.502Z,60.30
2022-11-24T00:49:58.860Z,54.22
2022-11-24T00:51:46.450Z,57.17
2022-11-24T00:53:34.327Z,54.90
2022-11-24T00:55:21.622Z,59.20
2022-11-24T00:57:08.619Z,63.83
2022-11-24T00:58:55.985Z,59.30
2022-11-24T01:00:43.551Z,63.38
2022-11-24T01:02:30.608Z,58.83
2022-11-24T01:04:18.471Z,62.83
2022-11-24T01:06:08.093Z,57.90
2022-11-24T01:07:55.564Z,62.15
2022-11-24T01:09:45.593Z,63.80
2022-11-24T01:12:07.710Z,52.03
2022-11-24T01:13:59.815Z,52.72
2022-11-24T01:15:46.991Z,59.47
2022-11-24T01:17:34.343Z,61.95
2022-11-24T01:19:22.147Z,58.00
2022-11-24T01:22:58.064Z,54.25
2022-11-24T01:24:45.755Z,53.10
2022-11-24T01:26:32.806Z,58.17
2022-11-24T01:28:20.064Z,57.45
2022-11-24T01:30:08.068Z,65.15
2022-11-24T01:31:55.130Z,72.53
2022-11-24T01:33:42.879Z,79.07
2022-11-24T01:35:29.882Z,77.85
2022-11-24T01:37:16.946Z,79.67
2022-11-24T01:39:04.292Z,83.65
2022-11-24T01:41:04.185Z,75.67
2022-11-24T01:42:52.976Z,75.60
2022-11-24T01:44:42.387Z,73.72
2022-11-24T01:46:34.452Z,68.82
2022-11-24T01:48:28.340Z,74.55
2022-11-24T01:50:17.041Z,71.93
2022-11-24T01:52:17.686Z,60.90
2022-11-24T01:54:14.111Z,64.97
2022-11-24T01:56:01.607Z,64.88
2022-11-24T01:58:01.777Z,64.10
2022-11-24T01:59:52.512Z,66.65
2022-11-24T02:01:45.895Z,66.63
2022-11-24T02:03:36.799Z,64.50
2022-11-24T02:05:32.023Z,65.20
2022-11-24T02:07:19.436Z,57.58
2022-11-24T02:09:16.633Z,61.65
2022-11-24T02:11:05.008Z,57.78
2022-11-24T02:12:55.650Z,58.10
2022-11-24T02:14:44.135Z,57.65
2022-11-24T02:16:34.301Z,59.72
2022-11-24T02:18:21.642Z,61.90
2022-11-24T02:20:10.660Z,67.10
2022-11-24T02:21:57.858Z,63.90
2022-11-24T02:24:11.110Z,65.35
2022-11-24T02:26:33.995Z,61.85
2022-11-24T02:28:23.505Z,59.47
2022-11-24T02:30:11.470Z,60.30
2022-11-24T02:32:03.252Z,60.60
2022-11-24T02:33:50.816Z,65.43
2022-11-24T02:37:25.522Z,57.75
2022-11-24T02:39:14.103Z,49.90
2022-11-24T02:41:05.681Z,55.75
2022-11-24T02:43:01.550Z,48.72
2022-11-24T02:44:54.975Z,56.45
2022-11-24T02:46:42.350Z,56.17
2022-11-24T02:48:29.361Z,59.63
2022-11-24T02:50:16.686Z,62.20
2022-11-24T02:52:05.078Z,65.53
2022-11-24T02:53:52.131Z,58.03
2022-11-24T02:55:39.170Z,59.00
2022-11-24T02:57:26.447Z,48.47
2022-11-24T02:59:13.399Z,61.70
2022-11-24T03:01:00.690Z,62.08
2022-11-24T03:02:48.249Z,63.58
2022-11-24T03:06:24.268Z,65.45
2022-11-24T03:08:12.958Z,65.85
2022-11-24T03:10:00.292Z,69.13
2022-11-24T03:11:47.496Z,74.57
2022-11-24T03:13:34.785Z,68.80
2022-11-24T03:15:23.109Z,72.90
2022-11-24T03:17:10.158Z,75.82
2022-11-24T03:18:57.438Z,70.88
2022-11-24T03:20:44.459Z,78.22
2022-11-24T03:22:32.176Z,79.97
2022-11-24T03:24:19.555Z,82.05
2022-11-24T03:26:10.771Z,74.18
2022-11-24T03:27:58.354Z,77.35
2022-11-24T03:29:45.608Z,75.63
2022-11-24T03:31:32.683Z,71.78
2022-11-24T03:33:19.779Z,78.97
2022-11-24T03:35:07.853Z,76.40
2022-11-24T03:36:54.849Z,73.32
2022-11-24T03:38:42.041Z,74.63
2022-11-24T03:40:29.391Z,70.70
2022-11-24T03:42:16.781Z,73.35
2022-11-24T03:44:03.970Z,71.07
2022-11-24T03:45:51.400Z,72.15
2022-11-24T03:47:38.401Z,75.43
2022-11-24T03:49:25.417Z,73.13
2022-11-24T03:51:12.787Z,67.05
2022-11-24T03:52:59.832Z,72.03
2022-11-24T03:54:47.926Z,64.87
2022-11-24T03:56:35.261Z,72.53
2022-11-24T03:58:22.976Z,77.15
2022-11-24T04:00:11.135Z,69.95
2022-11-24T04:01:58.490Z,72.07
2022-11-24T04:03:45.650Z,71.18
2022-11-24T04:05:33.544Z,74.50
2022-11-24T04:07:20.839Z,72.63
2022-11-24T04:09:09.338Z,80.25
2022-11-24T04:10:56.512Z,78.47
2022-11-24T04:12:46.518Z,92.07
2022-11-24T04:14:33.750Z,79.65
2022-11-24T04:16:21.031Z,84.32
2022-11-24T04:18:09.721Z,65.35
2022-11-24T04:19:57.214Z,83.72
2022-11-24T04:21:44.213Z,87.13
2022-11-24T04:23:31.506Z,84.78
2022-11-24T04:25:18.574Z,81.03
2022-11-24T04:27:05.644Z,78.07
2022-11-24T04:28:52.909Z,84.47
2022-11-24T04:30:44.866Z,76.72
2022-11-24T04:32:32.227Z,89.40
2022-11-24T04:34:19.562Z,80.05
2022-11-24T04:36:07.008Z,84.73
2022-11-24T04:37:54.302Z,85.00
2022-11-24T04:39:41.552Z,79.90
2022-11-24T04:41:28.605Z,77.53
2022-11-24T04:43:18.482Z,82.88
2022-11-24T04:45:07.038Z,82.43
2022-11-24T04:46:54.240Z,88.05
2022-11-24T04:48:42.276Z,94.50
2022-11-24T04:50:29.593Z,86.25
2022-11-24T04:52:18.064Z,94.38
2022-11-24T04:54:06.387Z,90.75
2022-11-24T04:55:53.703Z,97.20
2022-11-24T04:57:40.707Z,89.90
2022-11-24T04:59:27.791Z,92.10
2022-11-24T05:01:15.346Z,96.15
2022-11-24T05:03:02.376Z,84.90
2022-11-24T05:04:49.861Z,87.40
2022-11-24T05:08:24.329Z,90.78
2022-11-24T05:10:30.634Z,81.83
2022-11-24T05:12:17.895Z,84.07
2022-11-24T05:14:04.955Z,84.00
2022-11-24T05:15:52.206Z,82.50
2022-11-24T05:17:39.850Z,84.45
2022-11-24T05:19:31.235Z,81.72
2022-11-24T05:21:19.508Z,78.80
2022-11-24T05:23:08.496Z,82.82
2022-11-24T05:24:55.696Z,81.05
2022-11-24T05:26:42.767Z,85.18
2022-11-24T05:28:30.551Z,54.28
2022-11-24T05:30:17.687Z,80.68
2022-11-24T05:32:05.097Z,88.95
2022-11-24T05:33:52.537Z,88.25
2022-11-24T05:35:40.501Z,91.10
2022-11-24T05:39:16.476Z,88.95
2022-11-24T05:41:05.714Z,93.75
2022-11-24T05:42:53.005Z,96.15
2022-11-24T05:44:40.453Z,86.30
2022-11-24T05:46:28.074Z,97.47
2022-11-24T05:48:16.381Z,105.13
2022-11-24T05:50:04.853Z,110.05
2022-11-24T05:51:52.060Z,110.00
2022-11-24T05:53:39.528Z,116.32
2022-11-24T05:55:27.586Z,121.55
2022-11-24T05:57:16.299Z,98.60
2022-11-24T05:59:09.439Z,100.53
2022-11-24T06:00:57.278Z,107.22
2022-11-24T06:02:44.352Z,99.40
2022-11-24T06:04:32.599Z,91.78
2022-11-24T06:06:20.234Z,89.13
2022-11-24T06:08:07.361Z,86.90
2022-11-24T06:09:54.513Z,68.32
2022-11-24T06:11:41.908Z,85.50
2022-11-24T06:13:29.177Z,87.33
2022-11-24T06:15:17.474Z,72.75
2022-11-24T06:17:05.391Z,79.93
2022-11-24T06:18:55.842Z,76.00
2022-11-24T06:20:53.117Z,81.18
2022-11-24T06:22:50.514Z,62.45
2022-11-24T06:24:37.582Z,56.97
2022-11-24T06:26:24.833Z,59.83
2022-11-24T06:28:12.439Z,60.35
2022-11-24T06:29:59.512Z,60.78
2022-11-24T06:31:46.559Z,63.17
2022-11-24T06:33:35.529Z,60.78
2022-11-24T06:35:22.668Z,54.72
2022-11-24T06:37:10.501Z,56.28
2022-11-24T06:38:57.802Z,53.42
2022-11-24T06:40:44.886Z,58.77
2022-11-24T06:42:32.008Z,57.25
2022-11-24T06:44:19.762Z,54.58
2022-11-24T06:46:07.038Z,57.30
2022-11-24T06:47:55.367Z,55.17
2022-11-24T06:49:42.792Z,57.03
2022-11-24T06:51:29.930Z,52.28
2022-11-24T06:53:17.290Z,59.40
2022-11-24T06:55:05.208Z,60.58
2022-11-24T06:56:57.442Z,58.58
2022-11-24T06:58:47.539Z,55.63
2022-11-24T07:00:35.069Z,59.60
2022-11-24T07:02:22.295Z,60.15
2022-11-24T07:04:10.383Z,59.38
2022-11-24T07:05:58.525Z,57.80
2022-11-24T07:07:45.699Z,56.15
2022-11-24T07:09:33.017Z,52.92
2022-11-24T07:11:22.794Z,58.97
2022-11-24T07:13:10.634Z,61.42
2022-11-24T07:16:45.242Z,60.30
2022-11-24T07:18:32.440Z,58.80
2022-11-24T07:20:19.872Z,62.90
2022-11-24T07:22:07.442Z,67.70
2022-11-24T07:23:57.062Z,57.83
2022-11-24T07:25:44.632Z,64.75
2022-11-24T07:27:32.188Z,62.15
2022-11-24T07:29:19.332Z,60.22
2022-11-24T07:31:12.311Z,63.47
2022-11-24T07:33:01.922Z,54.42
2022-11-24T07:34:49.432Z,54.90
2022-11-24T07:36:36.647Z,57.53
2022-11-24T07:38:24.042Z,47.53
2022-11-24T07:40:11.595Z,63.70
2022-11-24T07:42:00.089Z,66.95
2022-11-24T07:43:48.532Z,62.55
2022-11-24T07:45:35.953Z,59.45
2022-11-24T07:47:23.271Z,67.65
2022-11-24T07:49:11.260Z,76.97
2022-11-24T07:51:02.783Z,69.97
2022-11-24T07:52:50.333Z,74.55
2022-11-24T07:54:37.604Z,77.70
2022-11-24T07:56:24.697Z,70.87
2022-11-24T07:58:11.711Z,64.80
2022-11-24T07:59:59.134Z,70.35
2022-11-24T08:01:46.840Z,65.32
2022-11-24T08:03:35.557Z,66.93
2022-11-24T08:05:23.256Z,65.28
2022-11-24T08:07:10.509Z,58.85
2022-11-24T08:08:58.488Z,54.00
2022-11-24T08:10:45.856Z,59.85
2022-11-24T08:12:32.896Z,56.97
2022-11-24T08:14:20.182Z,52.72
2022-11-24T08:16:13.245Z,54.20
2022-11-24T08:18:02.694Z,54.08
2022-11-24T08:19:50.045Z,55.95
2022-11-24T08:21:37.941Z,54.17
2022-11-24T08:23:25.224Z,54.95
2022-11-24T08:25:14.621Z,49.83
2022-11-24T08:27:02.034Z,52.60
2022-11-24T08:28:57.520Z,53.17
2022-11-24T08:30:45.832Z,54.85
2022-11-24T08:32:33.340Z,60.22
2022-11-24T08:34:20.340Z,63.75
2022-11-24T08:36:10.192Z,58.33
2022-11-24T08:38:03.192Z,60.63
2022-11-24T08:39:52.471Z,66.47
2022-11-24T08:43:27.378Z,82.55
2022-11-24T08:45:20.838Z,73.55
2022-11-24T08:47:09.314Z,69.60
2022-11-24T08:48:56.936Z,67.13
2022-11-24T08:50:44.016Z,51.28
2022-11-24T08:52:31.385Z,67.68
2022-11-24T08:54:18.990Z,69.75
2022-11-24T08:56:07.442Z,77.28
2022-11-24T08:57:54.726Z,84.68
2022-11-24T08:59:42.225Z,80.72
2022-11-24T09:01:29.986Z,66.43
2022-11-24T09:05:07.224Z,82.53
2022-11-24T09:07:04.945Z,74.63
2022-11-24T09:08:54.407Z,71.13
2022-11-24T09:10:42.150Z,66.35
2022-11-24T09:12:29.416Z,66.40
2022-11-24T09:14:16.626Z,72.22
2022-11-24T09:16:06.467Z,78.95
2022-11-24T09:17:53.572Z,74.25
2022-11-24T09:19:43.797Z,69.35
2022-11-24T09:21:34.405Z,69.22
2022-11-24T09:23:21.741Z,67.47
2022-11-24T09:25:09.364Z,54.17
2022-11-24T09:28:45.771Z,43.50
2022-11-24T09:30:33.059Z,48.97
2022-11-24T09:32:20.501Z,52.17
2022-11-24T09:34:12.441Z,48.03
2022-11-24T09:36:00.488Z,51.80
2022-11-24T09:37:48.394Z,51.55
2022-11-24T09:39:35.711Z,50.70
2022-11-24T09:41:23.272Z,53.70
2022-11-24T09:43:28.970Z,57.53
2022-11-24T09:45:42.023Z,54.50
2022-11-24T09:50:10.131Z,49.67
2022-11-24T09:51:57.988Z,53.30
2022-11-24T09:54:00.592Z,54.15
2022-11-24T09:55:50.904Z,52.47
2022-11-24T09:57:42.284Z,50.05
2022-11-24T09:59:29.749Z,54.70
2022-11-24T10:01:21.053Z,51.03
2022-11-24T10:03:19.728Z,62.08
2022-11-24T10:05:07.945Z,62.75
2022-11-24T10:07:19.587Z,62.05
2022-11-24T10:09:15.699Z,58.78
2022-11-24T10:11:11.492Z,62.65
2022-11-24T10:13:19.195Z,65.13
2022-11-24T10:16:12.601Z,61.75
2022-11-24T10:18:17.002Z,55.25
2022-11-24T10:20:36.911Z,51.90
2022-11-24T10:22:42.930Z,61.80
2022-11-24T10:25:13.336Z,65.80
2022-11-24T10:27:04.032Z,57.10
2022-11-24T10:28:56.133Z,61.25
2022-11-24T10:30:43.987Z,69.57
2022-11-24T10:32:41.171Z,76.53
2022-11-24T10:34:37.638Z,68.32
2022-11-24T10:36:44.325Z,72.93
2022-11-24T10:38:37.209Z,46.22
2022-11-24T10:41:05.460Z,50.95
2022-11-24T10:42:53.180Z,50.70
2022-11-24T10:44:42.370Z,51.58
2022-11-24T10:46:31.554Z,64.20
2022-11-24T10:48:26.099Z,62.13
2022-11-24T10:50:25.730Z,73.60
2022-11-24T10:52:18.930Z,68.90
2022-11-24T10:54:16.879Z,62.70
2022-11-24T10:56:05.426Z,58.38
2022-11-24T10:57:52.648Z,55.20
2022-11-24T10:59:40.907Z,53.38
2022-11-24T11:01:33.312Z,53.47
2022-11-24T11:03:26.208Z,58.28
2022-11-24T11:05:25.580Z,60.78
2022-11-24T11:07:25.197Z,70.05
2022-11-24T11:09:22.271Z,72.10
2022-11-24T11:11:20.424Z,85.28
2022-11-24T11:13:26.395Z,69.28
2022-11-24T11:15:23.312Z,74.05
2022-11-24T11:17:37.495Z,65.63
2022-11-24T11:19:49.026Z,67.97
2022-11-24T11:21:39.121Z,62.60
2022-11-24T11:23:30.518Z,72.93
2022-11-24T11:25:24.523Z,78.15
2022-11-24T11:27:23.291Z,71.47
2022-11-24T11:31:24.721Z,68.05
2022-11-24T11:35:33.990Z,74.32
2022-11-24T11:37:25.580Z,70.10
2022-11-24T11:39:26.847Z,83.00
2022-11-24T11:41:22.747Z,81.38
2022-11-24T11:43:25.055Z,79.97
2022-11-24T11:45:18.397Z,87.97
2022-11-24T11:47:38.036Z,79.38
2022-11-24T11:49:25.506Z,73.90
2022-11-24T11:51:31.512Z,88.43
2022-11-24T11:53:45.204Z,77.10
2022-11-24T11:55:54.772Z,71.72
2022-11-24T11:58:18.535Z,71.00
2022-11-24T12:00:18.953Z,74.60
2022-11-24T12:02:53.825Z,72.22
2022-11-24T12:04:57.194Z,79.20
2022-11-24T12:06:59.089Z,74.38
2022-11-24T12:09:23.726Z,74.45
2022-11-24T12:11:29.379Z,65.05
2022-11-24T12:13:41.374Z,66.10
2022-11-24T12:15:39.942Z,70.40
2022-11-24T12:17:45.067Z,71.70
2022-11-24T12:19:47.680Z,132.18
2022-11-24T12:21:49.617Z,174.52
2022-11-24T12:23:36.728Z,286.25
2022-11-24T12:25:47.978Z,175.85
2022-11-24T12:28:05.738Z,332.67
2022-11-24T12:30:02.856Z,219.52
2022-11-24T12:32:28.098Z,433.67
2022-11-24T12:34:15.439Z,214.82
2022-11-24T12:36:30.273Z,169.32
2022-11-24T12:38:42.846Z,322.77
2022-11-24T12:43:31.039Z,284.83
2022-11-24T12:45:31.967Z,111.35
2022-11-24T12:47:39.511Z,128.48
2022-11-24T12:49:53.666Z,96.85
2022-11-24T12:51:44.892Z,112.07
2022-11-24T12:53:37.463Z,77.57
2022-11-24T12:55:25.677Z,77.10
2022-11-24T12:57:19.413Z,87.07
2022-11-24T12:59:25.516Z,80.90
2022-11-24T13:01:21.933Z,68.30
2022-11-24T13:03:29.729Z,83.70
2022-11-24T13:05:36.162Z,171.27
2022-11-24T13:07:44.776Z,170.68
2022-11-24T13:09:32.442Z,105.30
2022-11-24T13:11:23.067Z,183.32
2022-11-24T13:13:17.804Z,150.00
2022-11-24T13:15:43.547Z,79.88
2022-11-24T13:17:33.736Z,169.45
2022-11-24T13:19:39.781Z,345.77
2022-11-24T13:21:30.399Z,255.15
2022-11-24T13:23:24.845Z,182.32
2022-11-24T13:25:20.410Z,79.85
2022-11-24T13:27:17.085Z,64.38
2022-11-24T13:29:18.203Z,68.78
2022-11-24T13:31:22.599Z,86.88
2022-11-24T13:33:16.968Z,135.57
2022-11-24T13:35:15.732Z,92.00
2022-11-24T13:37:26.668Z,113.45
2022-11-24T13:39:21.405Z,88.50
2022-11-24T13:41:27.588Z,85.00
2022-11-24T13:43:16.102Z,63.47
2022-11-24T13:45:07.075Z,66.57
2022-11-24T13:47:06.687Z,71.32
2022-11-24T13:48:59.438Z,77.03
2022-11-24T13:50:50.002Z,76.88
2022-11-24T13:52:44.864Z,85.03
2022-11-24T13:54:32.145Z,75.15
2022-11-24T13:56:24.736Z,73.70
2022-11-24T13:58:11.909Z,69.35
2022-11-24T14:00:04.003Z,75.30
2022-11-24T14:01:58.954Z,127.57
2022-11-24T14:04:28.595Z,105.68
2022-11-24T14:06:06.696Z,93.30
2022-11-24T14:07:55.032Z,97.70
2022-11-24T14:09:47.161Z,97.00
2022-11-24T14:11:34.455Z,127.10
2022-11-24T14:13:32.934Z,156.80
2022-11-24T14:15:34.199Z,86.50
2022-11-24T14:17:24.112Z,78.85
2022-11-24T14:19:11.849Z,79.00
2022-11-24T14:21:01.742Z,88.43
2022-11-24T14:22:49.640Z,74.30
2022-11-24T14:24:41.788Z,77.32
2022-11-24T14:26:38.238Z,69.68
2022-11-24T14:28:27.837Z,86.70
2022-11-24T14:30:15.657Z,80.20
2022-11-24T14:32:05.051Z,87.40
2022-11-24T14:34:13.323Z,84.78
2022-11-24T14:36:01.646Z,75.22
2022-11-24T14:37:48.859Z,66.70
2022-11-24T14:39:41.731Z,50.35
2022-11-24T14:41:33.619Z,72.43
2022-11-24T14:43:26.406Z,76.40
2022-11-24T14:45:18.002Z,61.88
2022-11-24T14:47:12.976Z,60.17
2022-11-24T14:49:00.247Z,58.30
2022-11-24T14:50:47.784Z,59.53
2022-11-24T14:52:36.069Z,68.82
2022-11-24T14:56:28.789Z,72.10
2022-11-24T14:58:29.411Z,100.87
2022-11-24T15:00:24.861Z,83.00
2022-11-24T15:02:39.918Z,95.63
2022-11-24T15:05:01.402Z,81.82
2022-11-24T15:06:41.944Z,82.82
2022-11-24T15:08:37.283Z,82.90
2022-11-24T15:10:38.676Z,115.68
2022-11-24T15:12:36.908Z,90.78
2022-11-24T15:14:34.694Z,92.72
2022-11-24T15:16:25.529Z,87.38
2022-11-24T15:18:43.200Z,99.35
2022-11-24T15:20:35.225Z,93.05
2022-11-24T15:22:37.801Z,109.60
2022-11-24T15:24:24.912Z,97.15
2022-11-24T15:26:12.244Z,146.55
2022-11-24T15:28:03.629Z,201.70
2022-11-24T15:29:50.919Z,200.15
2022-11-24T15:31:44.216Z,166.32
2022-11-24T15:33:35.411Z,158.93
2022-11-24T15:35:23.746Z,139.25
2022-11-24T15:37:10.946Z,141.70
2022-11-24T15:38:58.397Z,124.90
2022-11-24T15:40:53.076Z,133.18
2022-11-24T15:42:40.635Z,131.43
2022-11-24T15:46:15.998Z,175.45
2022-11-24T15:49:50.526Z,137.38
2022-11-24T15:51:42.656Z,155.70
2022-11-24T15:53:32.666Z,162.77
2022-11-24T15:55:22.325Z,174.40
2022-11-24T15:57:11.229Z,177.68
2022-11-24T15:58:58.700Z,181.50
2022-11-24T16:00:46.297Z,150.55
2022-11-24T16:02:33.625Z,142.18
2022-11-24T16:04:21.144Z,141.20
2022-11-24T16:06:19.056Z,160.40
2022-11-24T16:08:16.276Z,128.48
2022-11-24T16:10:04.396Z,108.47
2022-11-24T16:11:52.098Z,101.95
2022-11-24T16:15:27.524Z,94.70
2022-11-24T16:17:15.120Z,109.40
2022-11-24T16:19:02.329Z,114.90
2022-11-24T16:20:49.533Z,116.55
2022-11-24T16:22:37.007Z,108.55
2022-11-24T16:24:24.119Z,130.05
2022-11-24T16:26:11.222Z,122.93
2022-11-24T16:27:58.850Z,106.55
2022-11-24T16:29:45.966Z,147.95
2022-11-24T16:31:33.302Z,161.68
2022-11-24T16:33:20.753Z,104.57
2022-11-24T16:35:08.593Z,113.72
2022-11-24T16:36:56.046Z,111.32
2022-11-24T16:40:32.017Z,124.78
2022-11-24T16:42:19.204Z,130.88
2022-11-24T16:44:06.658Z,140.68
2022-11-24T16:46:09.312Z,130.80
2022-11-24T16:47:56.436Z,142.13
2022-11-24T16:49:43.894Z,138.80
2022-11-24T16:51:34.966Z,128.35
2022-11-24T16:53:23.058Z,144.27
2022-11-24T16:55:11.826Z,132.57
2022-11-24T16:56:59.136Z,113.25
2022-11-24T16:58:46.203Z,97.93
2022-11-24T17:00:33.707Z,106.00
2022-11-24T17:02:20.918Z,101.88
2022-11-24T17:04:12.400Z,108.25
2022-11-24T17:06:01.066Z,106.47
2022-11-24T17:09:40.361Z,129.38
2022-11-24T17:11:29.232Z,118.60
2022-11-24T17:13:16.367Z,106.07
2022-11-24T17:15:31.263Z,74.70
2022-11-24T17:17:13.074Z,94.05
2022-11-24T17:19:00.241Z,105.55
2022-11-24T17:20:47.855Z,127.35
2022-11-24T17:22:37.908Z,112.97
2022-11-24T17:24:25.276Z,147.10
2022-11-24T17:26:18.306Z,132.68
2022-11-24T17:28:06.439Z,111.03
2022-11-24T17:29:54.222Z,102.20
2022-11-24T17:31:41.617Z,131.05
2022-11-24T17:33:29.383Z,231.93
2022-11-24T17:35:17.771Z,190.55
2022-11-24T17:37:05.049Z,130.02
2022-11-24T17:38:53.079Z,89.15
2022-11-24T17:42:28.044Z,96.80
2022-11-24T17:44:15.981Z,92.95
2022-11-24T17:46:04.859Z,116.20
2022-11-24T17:47:52.669Z,120.53
2022-11-24T17:49:40.451Z,142.43
2022-11-24T17:51:27.766Z,133.63
2022-11-24T17:53:15.074Z,131.35
2022-11-24T17:55:02.994Z,148.20
2022-11-24T17:56:50.272Z,139.45
2022-11-24T17:58:42.692Z,136.52
2022-11-24T18:00:31.207Z,127.60
2022-11-24T18:02:18.647Z,108.28
2022-11-24T18:04:05.835Z,116.78
2022-11-24T18:05:53.492Z,123.38
2022-11-24T18:07:40.683Z,131.73
2022-11-24T18:09:27.895Z,113.72
2022-11-24T18:11:24.710Z,114.68
2022-11-24T18:13:40.725Z,111.05
2022-11-24T18:17:10.282Z,129.65
2022-11-24T18:19:14.885Z,133.48
2022-11-24T18:21:02.933Z,137.20
2022-11-24T18:23:04.969Z,134.68
2022-11-24T18:24:52.543Z,137.13
2022-11-24T18:26:40.937Z,122.40
2022-11-24T18:28:28.746Z,140.80
2022-11-24T18:30:16.255Z,164.98
2022-11-24T18:32:03.716Z,164.02
2022-11-24T18:33:51.213Z,181.13
2022-11-24T18:35:39.720Z,127.25
2022-11-24T18:37:30.482Z,129.73
2022-11-24T18:39:18.958Z,143.32
2022-11-24T18:44:42.415Z,140.75
2022-11-24T18:46:29.737Z,129.48
2022-11-24T18:48:16.915Z,135.48
2022-11-24T18:50:05.065Z,132.13
2022-11-24T18:51:52.957Z,120.03
2022-11-24T18:53:44.565Z,117.55
2022-11-24T18:55:32.202Z,105.90
2022-11-24T18:57:19.823Z,100.15
2022-11-24T18:59:07.427Z,101.28
2022-11-24T19:01:05.588Z,102.72
2022-11-24T19:02:53.721Z,93.47
2022-11-24T19:04:41.277Z,96.70
2022-11-24T19:06:39.591Z,101.43
2022-11-24T19:08:26.853Z,115.15
2022-11-24T19:10:15.990Z,143.63
2022-11-24T19:12:04.185Z,153.30
2022-11-24T19:13:51.808Z,150.32
2022-11-24T19:15:39.694Z,157.00
2022-11-24T19:17:27.537Z,165.82
2022-11-24T19:19:15.191Z,148.73
2022-11-24T19:21:02.347Z,157.23
2022-11-24T19:22:49.800Z,133.73
2022-11-24T19:24:37.485Z,150.33
2022-11-24T19:28:13.179Z,154.82
2022-11-24T19:30:01.079Z,198.70
2022-11-24T19:31:48.652Z,247.23
2022-11-24T19:33:36.973Z,278.63
2022-11-24T19:35:24.746Z,220.50
2022-11-24T19:37:13.966Z,201.35
2022-11-24T19:39:04.946Z,179.88
2022-11-24T19:40:52.324Z,139.50
2022-11-24T19:42:39.385Z,134.67
2022-11-24T19:44:27.251Z,128.85
2022-11-24T19:46:17.456Z,123.13
2022-11-24T19:48:05.091Z,111.45
2022-11-24T19:49:52.574Z,108.10
2022-11-24T19:51:40.794Z,124.95
2022-11-24T19:53:28.832Z,103.57
2022-11-24T19:55:16.467Z,107.22
2022-11-24T19:57:03.858Z,245.52
2022-11-24T19:58:55.670Z,159.27
2022-11-24T20:00:43.150Z,248.45
2022-11-24T20:02:34.189Z,215.93
2022-11-24T20:04:21.904Z,230.13
2022-11-24T20:06:11.455Z,175.88
2022-11-24T20:07:59.539Z,229.45
2022-11-24T20:09:48.033Z,262.35
2022-11-24T20:11:36.574Z,160.25
2022-11-24T20:13:23.897Z,118.35
2022-11-24T20:15:11.618Z,113.88
2022-11-24T20:17:00.040Z,107.47
2022-11-24T20:18:51.823Z,113.97
2022-11-24T20:20:39.959Z,110.50
2022-11-24T20:22:28.851Z,110.50
2022-11-24T20:24:21.123Z,106.90
2022-11-24T20:26:13.421Z,109.75
2022-11-24T20:28:02.644Z,107.40
2022-11-24T20:29:51.206Z,113.15
2022-11-24T20:31:43.418Z,106.72
2022-11-24T20:33:31.890Z,101.10
2022-11-24T20:35:19.770Z,112.93
2022-11-24T20:37:13.296Z,102.60
2022-11-24T20:39:03.954Z,101.85
2022-11-24T20:40:51.300Z,109.68
2022-11-24T20:42:38.470Z,125.50
2022-11-24T20:44:27.513Z,113.70
2022-11-24T20:46:17.841Z,165.18
2022-11-24T20:48:05.381Z,153.50
2022-11-24T20:49:52.870Z,136.23
2022-11-24T20:51:44.223Z,123.50
2022-11-24T20:53:31.468Z,130.70
2022-11-24T20:55:19.018Z,125.55
2022-11-24T20:57:06.201Z,167.38
2022-11-24T20:58:54.263Z,140.02
2022-11-24T21:00:41.893Z,152.20
2022-11-24T21:02:29.364Z,150.50
2022-11-24T21:04:21.103Z,151.65
2022-11-24T21:06:09.758Z,190.95
2022-11-24T21:07:56.957Z,169.02
2022-11-24T21:09:44.593Z,168.15
2022-11-24T21:11:33.423Z,158.32
2022-11-24T21:13:20.851Z,144.38
2022-11-24T21:15:08.705Z,143.30
2022-11-24T21:16:56.051Z,139.43
2022-11-24T21:18:44.776Z,149.27
2022-11-24T21:20:34.110Z,149.68
2022-11-24T21:22:21.447Z,138.10
2022-11-24T21:24:14.701Z,135.63
2022-11-24T21:26:05.641Z,130.32
2022-11-24T21:27:53.631Z,132.75
2022-11-24T21:29:40.767Z,144.75
2022-11-24T21:31:27.857Z,156.13
2022-11-24T21:33:16.941Z,144.93
2022-11-24T21:35:04.232Z,149.50
2022-11-24T21:36:51.426Z,162.38
2022-11-24T21:38:38.903Z,171.23
2022-11-24T21:40:26.512Z,167.70
2022-11-24T21:42:13.815Z,155.70
2022-11-24T21:44:02.313Z,168.52
2022-11-24T21:45:49.737Z,163.32
2022-11-24T21:47:38.785Z,167.82
2022-11-24T21:49:26.331Z,191.70
2022-11-24T21:51:16.462Z,190.30
2022-11-24T21:53:04.220Z,204.48
2022-11-24T21:54:52.592Z,198.73
2022-11-24T21:58:28.270Z,237.75
2022-11-24T22:00:16.400Z,263.48
2022-11-24T22:02:05.817Z,254.27
2022-11-24T22:03:55.988Z,322.80
2022-11-24T22:05:52.476Z,244.75
2022-11-24T22:07:39.928Z,357.40
2022-11-24T22:09:27.255Z,421.42
2022-11-24T22:11:17.992Z,314.98
2022-11-24T22:13:05.718Z,322.80
2022-11-24T22:14:53.111Z,356.55
2022-11-24T22:16:41.182Z,352.00
2022-11-24T22:18:32.170Z,305.35
2022-11-24T22:20:19.227Z,325.10
2022-11-24T22:22:06.556Z,273.10
2022-11-24T22:23:53.625Z,248.10
2022-11-24T22:25:40.886Z,346.10
2022-11-24T22:27:28.355Z,330.20
2022-11-24T22:29:15.676Z,346.67
2022-11-24T22:31:06.831Z,349.95
2022-11-24T22:32:54.666Z,300.35
2022-11-24T22:34:41.705Z,313.50
2022-11-24T22:36:30.134Z,361.00
2022-11-24T22:38:17.483Z,352.55
2022-11-24T22:40:04.777Z,332.30
2022-11-24T22:41:53.621Z,333.83
2022-11-24T22:43:42.319Z,391.42
2022-11-24T22:45:29.437Z,465.80
2022-11-24T22:47:16.467Z,437.90
2022-11-24T22:49:03.803Z,328.05
2022-11-24T22:50:50.764Z,445.97
2022-11-24T22:52:38.787Z,450.65
2022-11-24T22:54:26.120Z,393.15
2022-11-24T22:56:13.148Z,421.20
2022-11-24T22:58:00.139Z,406.27
2022-11-24T22:59:47.864Z,351.30
2022-11-24T23:01:34.912Z,399.42
2022-11-24T23:03:22.024Z,369.73
2022-11-24T23:05:09.660Z,417.63
2022-11-24T23:06:58.582Z,420.40
2022-11-24T23:08:45.706Z,418.35
2022-11-24T23:10:33.120Z,420.02
2022-11-24T23:12:20.089Z,357.10
2022-11-24T23:14:12.444Z,391.17
2022-11-24T23:16:05.498Z,340.30
2022-11-24T23:17:52.624Z,342.85
2022-11-24T23:19:39.646Z,341.47
2022-11-24T23:21:33.381Z,380.55
2022-11-24T23:23:20.473Z,358.90
2022-11-24T23:25:07.953Z,405.03
2022-11-24T23:26:55.238Z,442.48
2022-11-24T23:28:43.363Z,368.10
2022-11-24T23:30:30.299Z,375.08
2022-11-24T23:32:17.643Z,361.38
2022-11-24T23:34:04.686Z,437.97
2022-11-24T23:35:52.403Z,269.08
2022-11-24T23:38:05.931Z,353.15
2022-11-24T23:39:49.459Z,379.48
2022-11-24T23:41:36.618Z,362.95
2022-11-24T23:43:24.062Z,364.65
2022-11-24T23:45:11.266Z,392.23
2022-11-24T23:46:58.277Z,382.63
2022-11-24T23:48:45.986Z,366.00
2022-11-24T23:50:34.812Z,393.77
2022-11-24T23:52:21.800Z,401.58
2022-11-24T23:54:09.853Z,464.38
2022-11-24T23:55:56.843Z,549.10
2022-11-24T23:57:43.891Z,442.57
2022-11-24T23:59:31.257Z,396.40
